sensor_id;sensor_type;location;lat;lon;timestamp;pressure;altitude;pressure_sealevel;temperature;humidity
39613;BME280;25303;48.896;13.342;2023-05-29T00:00:13;92934.06;;;14.04;45.63
39613;BME280;25303;48.896;13.342;2023-05-29T00:02:57;92938.50;;;13.95;45.69
39613;BME280;25303;48.896;13.342;2023-05-29T00:05:40;92930.97;;;13.85;45.79
39613;BME280;25303;48.896;13.342;2023-05-29T00:08:23;92933.47;;;13.78;45.88
39613;BME280;25303;48.896;13.342;2023-05-29T00:11:08;92936.56;;;13.74;45.94
39613;BME280;25303;48.896;13.342;2023-05-29T00:13:50;92938.09;;;13.68;46.09
39613;BME280;25303;48.896;13.342;2023-05-29T00:16:33;92937.16;;;13.61;46.24
39613;BME280;25303;48.896;13.342;2023-05-29T00:19:19;92931.88;;;13.54;46.90
39613;BME280;25303;48.896;13.342;2023-05-29T00:22:02;92932.84;;;13.53;47.02
39613;BME280;25303;48.896;13.342;2023-05-29T00:24:46;92928.97;;;13.49;47.05
39613;BME280;25303;48.896;13.342;2023-05-29T00:27:30;92934.16;;;13.49;47.08
39613;BME280;25303;48.896;13.342;2023-05-29T00:30:14;92933.69;;;13.45;47.04
39613;BME280;25303;48.896;13.342;2023-05-29T00:32:57;92928.72;;;13.44;47.17
39613;BME280;25303;48.896;13.342;2023-05-29T00:35:40;92929.69;;;13.43;47.41
39613;BME280;25303;48.896;13.342;2023-05-29T00:38:23;92932.59;;;13.40;47.67
39613;BME280;25303;48.896;13.342;2023-05-29T00:41:06;92933.44;;;13.40;47.52
39613;BME280;25303;48.896;13.342;2023-05-29T00:43:50;92931.03;;;13.30;47.63
39613;BME280;25303;48.896;13.342;2023-05-29T00:46:34;92926.13;;;13.35;47.28
39613;BME280;25303;48.896;13.342;2023-05-29T00:49:17;92925.38;;;13.27;47.44
39613;BME280;25303;48.896;13.342;2023-05-29T00:52:00;92926.47;;;13.32;47.06
39613;BME280;25303;48.896;13.342;2023-05-29T00:54:44;92923.56;;;13.35;46.69
39613;BME280;25303;48.896;13.342;2023-05-29T00:57:27;92921.78;;;13.36;46.90
39613;BME280;25303;48.896;13.342;2023-05-29T01:00:12;92920.81;;;13.37;46.58
39613;BME280;25303;48.896;13.342;2023-05-29T01:02:58;92924.72;;;13.33;46.50
39613;BME280;25303;48.896;13.342;2023-05-29T01:05:44;92919.25;;;13.28;46.62
39613;BME280;25303;48.896;13.342;2023-05-29T01:08:27;92922.16;;;13.25;46.68
39613;BME280;25303;48.896;13.342;2023-05-29T01:11:12;92918.03;;;13.15;47.65
39613;BME280;25303;48.896;13.342;2023-05-29T01:13:56;92920.56;;;12.92;48.36
39613;BME280;25303;48.896;13.342;2023-05-29T01:16:46;92919.16;;;12.89;48.03
39613;BME280;25303;48.896;13.342;2023-05-29T01:19:38;92921.53;;;12.91;47.63
39613;BME280;25303;48.896;13.342;2023-05-29T01:22:31;92920.88;;;12.97;47.39
39613;BME280;25303;48.896;13.342;2023-05-29T01:25:19;92923.09;;;13.00;47.34
39613;BME280;25303;48.896;13.342;2023-05-29T01:28:05;92925.69;;;13.00;47.60
39613;BME280;25303;48.896;13.342;2023-05-29T01:30:49;92923.75;;;13.02;47.56
39613;BME280;25303;48.896;13.342;2023-05-29T01:33:33;92921.00;;;13.04;47.62
39613;BME280;25303;48.896;13.342;2023-05-29T01:36:16;92919.84;;;13.06;47.49
39613;BME280;25303;48.896;13.342;2023-05-29T01:38:59;92918.41;;;13.04;47.87
39613;BME280;25303;48.896;13.342;2023-05-29T01:41:42;92920.81;;;13.05;47.80
39613;BME280;25303;48.896;13.342;2023-05-29T01:44:27;92915.66;;;13.05;47.64
39613;BME280;25303;48.896;13.342;2023-05-29T01:47:11;92918.88;;;13.07;47.39
39613;BME280;25303;48.896;13.342;2023-05-29T01:49:54;92914.88;;;13.05;47.45
39613;BME280;25303;48.896;13.342;2023-05-29T01:52:37;92910.66;;;13.04;47.35
39613;BME280;25303;48.896;13.342;2023-05-29T01:55:20;92904.69;;;13.03;47.29
39613;BME280;25303;48.896;13.342;2023-05-29T01:58:03;92903.56;;;13.06;47.32
39613;BME280;25303;48.896;13.342;2023-05-29T02:00:48;92902.28;;;13.02;47.30
39613;BME280;25303;48.896;13.342;2023-05-29T02:03:31;92905.38;;;12.97;47.20
39613;BME280;25303;48.896;13.342;2023-05-29T02:06:14;92903.63;;;12.89;47.76
39613;BME280;25303;48.896;13.342;2023-05-29T02:08:57;92903.47;;;12.83;48.11
39613;BME280;25303;48.896;13.342;2023-05-29T02:11:40;92899.81;;;12.77;47.80
39613;BME280;25303;48.896;13.342;2023-05-29T02:14:27;92900.63;;;12.77;47.65
39613;BME280;25303;48.896;13.342;2023-05-29T02:17:11;92896.56;;;12.75;47.92
39613;BME280;25303;48.896;13.342;2023-05-29T02:19:56;92887.72;;;12.77;48.04
39613;BME280;25303;48.896;13.342;2023-05-29T02:22:39;92886.09;;;12.76;47.92
39613;BME280;25303;48.896;13.342;2023-05-29T02:25:23;92886.44;;;12.73;47.90
39613;BME280;25303;48.896;13.342;2023-05-29T02:28:06;92882.56;;;12.69;47.86
39613;BME280;25303;48.896;13.342;2023-05-29T02:30:50;92889.22;;;12.64;47.80
39613;BME280;25303;48.896;13.342;2023-05-29T02:33:35;92885.22;;;12.53;47.97
39613;BME280;25303;48.896;13.342;2023-05-29T02:36:18;92882.00;;;12.51;48.19
39613;BME280;25303;48.896;13.342;2023-05-29T02:39:01;92884.44;;;12.52;47.69
39613;BME280;25303;48.896;13.342;2023-05-29T02:41:45;92879.84;;;12.63;47.68
39613;BME280;25303;48.896;13.342;2023-05-29T02:44:28;92879.34;;;12.67;47.35
39613;BME280;25303;48.896;13.342;2023-05-29T02:47:11;92875.47;;;12.71;47.28
39613;BME280;25303;48.896;13.342;2023-05-29T02:49:57;92878.69;;;12.73;47.11
39613;BME280;25303;48.896;13.342;2023-05-29T02:52:40;92874.03;;;12.69;47.21
39613;BME280;25303;48.896;13.342;2023-05-29T02:55:23;92871.59;;;12.67;47.48
39613;BME280;25303;48.896;13.342;2023-05-29T02:58:06;92871.00;;;12.57;47.74
39613;BME280;25303;48.896;13.342;2023-05-29T03:00:49;92872.47;;;12.51;48.08
39613;BME280;25303;48.896;13.342;2023-05-29T03:03:34;92872.81;;;12.48;47.82
39613;BME280;25303;48.896;13.342;2023-05-29T03:06:18;92876.38;;;12.47;47.75
39613;BME280;25303;48.896;13.342;2023-05-29T03:09:01;92877.50;;;12.44;48.11
39613;BME280;25303;48.896;13.342;2023-05-29T03:11:46;92876.88;;;12.42;48.14
39613;BME280;25303;48.896;13.342;2023-05-29T03:14:31;92880.09;;;12.44;48.21
39613;BME280;25303;48.896;13.342;2023-05-29T03:17:22;92882.03;;;12.42;48.55
39613;BME280;25303;48.896;13.342;2023-05-29T03:20:06;92879.59;;;12.49;48.64
39613;BME280;25303;48.896;13.342;2023-05-29T03:22:51;92878.41;;;12.60;48.19
39613;BME280;25303;48.896;13.342;2023-05-29T03:25:34;92877.72;;;12.66;48.06
39613;BME280;25303;48.896;13.342;2023-05-29T03:28:17;92879.19;;;12.69;48.10
39613;BME280;25303;48.896;13.342;2023-05-29T03:31:01;92879.00;;;12.70;47.88
39613;BME280;25303;48.896;13.342;2023-05-29T03:33:44;92875.16;;;12.66;48.02
39613;BME280;25303;48.896;13.342;2023-05-29T03:36:50;92878.09;;;12.63;48.07
39613;BME280;25303;48.896;13.342;2023-05-29T03:39:35;92883.41;;;12.61;48.41
39613;BME280;25303;48.896;13.342;2023-05-29T03:42:20;92885.84;;;12.63;48.48
39613;BME280;25303;48.896;13.342;2023-05-29T03:45:05;92892.47;;;12.57;48.35
39613;BME280;25303;48.896;13.342;2023-05-29T03:47:54;92892.97;;;12.53;48.43
39613;BME280;25303;48.896;13.342;2023-05-29T03:50:37;92886.69;;;12.47;48.66
39613;BME280;25303;48.896;13.342;2023-05-29T03:53:20;92885.09;;;12.46;48.79
39613;BME280;25303;48.896;13.342;2023-05-29T03:56:05;92898.97;;;12.45;48.65
39613;BME280;25303;48.896;13.342;2023-05-29T03:58:48;92886.88;;;12.45;48.78
39613;BME280;25303;48.896;13.342;2023-05-29T04:01:31;92895.09;;;12.49;48.84
39613;BME280;25303;48.896;13.342;2023-05-29T04:04:14;92891.53;;;12.50;48.94
39613;BME280;25303;48.896;13.342;2023-05-29T04:06:58;92901.69;;;12.52;48.96
39613;BME280;25303;48.896;13.342;2023-05-29T04:09:42;92891.19;;;12.53;49.00
39613;BME280;25303;48.896;13.342;2023-05-29T04:12:26;92896.19;;;12.55;49.03
39613;BME280;25303;48.896;13.342;2023-05-29T04:15:09;92899.09;;;12.60;49.28
39613;BME280;25303;48.896;13.342;2023-05-29T04:17:52;92898.56;;;12.65;49.49
39613;BME280;25303;48.896;13.342;2023-05-29T04:20:36;92905.16;;;12.67;49.33
39613;BME280;25303;48.896;13.342;2023-05-29T04:23:19;92901.13;;;12.73;49.11
39613;BME280;25303;48.896;13.342;2023-05-29T04:26:02;92900.63;;;12.77;49.02
39613;BME280;25303;48.896;13.342;2023-05-29T04:28:53;92900.22;;;12.89;48.93
39613;BME280;25303;48.896;13.342;2023-05-29T04:31:39;92908.94;;;12.96;48.95
39613;BME280;25303;48.896;13.342;2023-05-29T04:34:23;92912.63;;;13.02;49.01
39613;BME280;25303;48.896;13.342;2023-05-29T04:37:05;92906.94;;;13.06;48.91
39613;BME280;25303;48.896;13.342;2023-05-29T04:39:49;92915.50;;;13.07;49.11
39613;BME280;25303;48.896;13.342;2023-05-29T04:42:38;92918.22;;;13.14;49.27
39613;BME280;25303;48.896;13.342;2023-05-29T04:45:23;92924.47;;;13.19;49.16
39613;BME280;25303;48.896;13.342;2023-05-29T04:48:06;92926.09;;;13.20;49.38
39613;BME280;25303;48.896;13.342;2023-05-29T04:50:50;92931.66;;;13.32;49.49
39613;BME280;25303;48.896;13.342;2023-05-29T04:53:33;92925.69;;;13.40;49.51
39613;BME280;25303;48.896;13.342;2023-05-29T04:56:16;92923.03;;;13.48;49.36
39613;BME280;25303;48.896;13.342;2023-05-29T04:59:01;92930.56;;;13.58;49.09
39613;BME280;25303;48.896;13.342;2023-05-29T05:01:45;92927.09;;;13.66;49.00
39613;BME280;25303;48.896;13.342;2023-05-29T05:04:29;92929.00;;;13.72;48.60
39613;BME280;25303;48.896;13.342;2023-05-29T05:07:13;92925.53;;;13.80;48.49
39613;BME280;25303;48.896;13.342;2023-05-29T05:09:57;92922.25;;;13.86;48.28
39613;BME280;25303;48.896;13.342;2023-05-29T05:12:41;92928.97;;;13.95;48.29
39613;BME280;25303;48.896;13.342;2023-05-29T05:15:25;92922.91;;;14.03;47.61
39613;BME280;25303;48.896;13.342;2023-05-29T05:18:09;92928.28;;;14.17;47.60
39613;BME280;25303;48.896;13.342;2023-05-29T05:20:52;92931.41;;;14.27;47.29
39613;BME280;25303;48.896;13.342;2023-05-29T05:23:37;92935.19;;;14.39;47.47
39613;BME280;25303;48.896;13.342;2023-05-29T05:26:34;92940.72;;;14.51;47.57
39613;BME280;25303;48.896;13.342;2023-05-29T05:29:18;92936.25;;;14.60;47.35
39613;BME280;25303;48.896;13.342;2023-05-29T05:32:01;92942.03;;;14.70;47.53
39613;BME280;25303;48.896;13.342;2023-05-29T05:34:45;92944.69;;;14.77;47.92
39613;BME280;25303;48.896;13.342;2023-05-29T05:37:29;92954.94;;;14.85;47.15
39613;BME280;25303;48.896;13.342;2023-05-29T05:40:12;92950.31;;;14.96;47.06
39613;BME280;25303;48.896;13.342;2023-05-29T05:43:04;92955.56;;;15.02;47.06
39613;BME280;25303;48.896;13.342;2023-05-29T05:46:08;92958.06;;;15.11;46.44
39613;BME280;25303;48.896;13.342;2023-05-29T05:48:51;92958.13;;;15.17;46.50
39613;BME280;25303;48.896;13.342;2023-05-29T05:51:36;92957.41;;;15.24;46.46
39613;BME280;25303;48.896;13.342;2023-05-29T05:54:20;92963.66;;;15.29;46.88
39613;BME280;25303;48.896;13.342;2023-05-29T05:57:03;92961.94;;;15.37;47.54
39613;BME280;25303;48.896;13.342;2023-05-29T05:59:49;92960.16;;;15.37;46.51
39613;BME280;25303;48.896;13.342;2023-05-29T06:02:32;92962.03;;;15.43;45.98
39613;BME280;25303;48.896;13.342;2023-05-29T06:05:15;92963.06;;;15.49;45.46
39613;BME280;25303;48.896;13.342;2023-05-29T06:08:00;92967.53;;;15.55;45.52
39613;BME280;25303;48.896;13.342;2023-05-29T06:10:43;92976.19;;;15.62;45.80
39613;BME280;25303;48.896;13.342;2023-05-29T06:13:26;92975.44;;;15.69;46.58
39613;BME280;25303;48.896;13.342;2023-05-29T06:16:15;92978.91;;;15.76;46.13
39613;BME280;25303;48.896;13.342;2023-05-29T06:18:58;92982.53;;;15.82;45.87
39613;BME280;25303;48.896;13.342;2023-05-29T06:21:41;92985.44;;;15.87;45.79
39613;BME280;25303;48.896;13.342;2023-05-29T06:24:26;92982.09;;;15.93;45.51
39613;BME280;25303;48.896;13.342;2023-05-29T06:27:10;92979.72;;;15.98;44.54
39613;BME280;25303;48.896;13.342;2023-05-29T06:29:53;92991.97;;;16.04;45.25
39613;BME280;25303;48.896;13.342;2023-05-29T06:32:36;92994.63;;;16.11;45.05
39613;BME280;25303;48.896;13.342;2023-05-29T06:35:21;92992.41;;;16.08;43.89
39613;BME280;25303;48.896;13.342;2023-05-29T06:38:04;92994.50;;;16.19;44.61
39613;BME280;25303;48.896;13.342;2023-05-29T06:40:49;92996.97;;;16.28;45.13
39613;BME280;25303;48.896;13.342;2023-05-29T06:45:10;92998.78;;;16.27;45.45
39613;BME280;25303;48.896;13.342;2023-05-29T06:47:55;93001.03;;;16.37;45.25
39613;BME280;25303;48.896;13.342;2023-05-29T06:50:39;92990.50;;;16.45;45.26
39613;BME280;25303;48.896;13.342;2023-05-29T06:53:45;92998.16;;;16.53;44.92
39613;BME280;25303;48.896;13.342;2023-05-29T06:56:28;93000.41;;;16.63;44.95
39613;BME280;25303;48.896;13.342;2023-05-29T06:59:12;93004.69;;;16.71;44.95
39613;BME280;25303;48.896;13.342;2023-05-29T07:01:57;93007.31;;;16.78;44.54
39613;BME280;25303;48.896;13.342;2023-05-29T07:04:42;93000.34;;;16.85;44.04
39613;BME280;25303;48.896;13.342;2023-05-29T07:07:25;93003.59;;;16.94;43.98
39613;BME280;25303;48.896;13.342;2023-05-29T07:10:09;93002.50;;;17.03;43.68
39613;BME280;25303;48.896;13.342;2023-05-29T07:12:53;92995.75;;;17.15;42.75
39613;BME280;25303;48.896;13.342;2023-05-29T07:15:37;93003.19;;;17.25;43.00
39613;BME280;25303;48.896;13.342;2023-05-29T07:18:22;92999.41;;;17.28;42.68
39613;BME280;25303;48.896;13.342;2023-05-29T07:21:05;93011.66;;;17.41;43.07
39613;BME280;25303;48.896;13.342;2023-05-29T07:23:50;93004.09;;;17.53;42.98
39613;BME280;25303;48.896;13.342;2023-05-29T07:26:33;93011.97;;;17.66;42.98
39613;BME280;25303;48.896;13.342;2023-05-29T07:29:17;93010.38;;;17.79;42.70
39613;BME280;25303;48.896;13.342;2023-05-29T07:32:02;93002.41;;;17.94;42.26
39613;BME280;25303;48.896;13.342;2023-05-29T07:34:48;93006.66;;;18.08;42.34
39613;BME280;25303;48.896;13.342;2023-05-29T07:37:32;93016.88;;;18.23;42.10
39613;BME280;25303;48.896;13.342;2023-05-29T07:40:16;93011.50;;;18.38;41.49
39613;BME280;25303;48.896;13.342;2023-05-29T07:43:24;93014.69;;;18.60;41.05
39613;BME280;25303;48.896;13.342;2023-05-29T07:46:12;93006.84;;;18.80;40.26
39613;BME280;25303;48.896;13.342;2023-05-29T07:48:57;93009.84;;;19.04;39.69
39613;BME280;25303;48.896;13.342;2023-05-29T07:51:41;93018.81;;;19.28;39.42
39613;BME280;25303;48.896;13.342;2023-05-29T07:54:25;93012.47;;;19.56;38.64
39613;BME280;25303;48.896;13.342;2023-05-29T07:57:09;93005.97;;;19.72;38.75
39613;BME280;25303;48.896;13.342;2023-05-29T07:59:55;93008.88;;;19.96;38.47
39613;BME280;25303;48.896;13.342;2023-05-29T08:02:39;93007.22;;;20.09;37.92
39613;BME280;25303;48.896;13.342;2023-05-29T08:05:45;93004.00;;;20.07;36.79
39613;BME280;25303;48.896;13.342;2023-05-29T08:08:30;93009.81;;;20.09;36.61
39613;BME280;25303;48.896;13.342;2023-05-29T08:11:13;93004.38;;;20.10;36.45
39613;BME280;25303;48.896;13.342;2023-05-29T08:13:57;93000.34;;;20.14;36.54
39613;BME280;25303;48.896;13.342;2023-05-29T08:16:41;92999.91;;;20.17;36.48
39613;BME280;25303;48.896;13.342;2023-05-29T08:19:24;93009.81;;;20.09;36.10
39613;BME280;25303;48.896;13.342;2023-05-29T08:22:11;93014.19;;;20.15;36.22
39613;BME280;25303;48.896;13.342;2023-05-29T08:24:56;93016.94;;;20.27;36.19
39613;BME280;25303;48.896;13.342;2023-05-29T08:27:39;93018.50;;;20.34;35.97
39613;BME280;25303;48.896;13.342;2023-05-29T08:30:22;93012.56;;;20.46;35.62
39613;BME280;25303;48.896;13.342;2023-05-29T08:33:05;93014.16;;;20.47;35.74
39613;BME280;25303;48.896;13.342;2023-05-29T08:35:48;93015.63;;;20.43;35.08
39613;BME280;25303;48.896;13.342;2023-05-29T08:38:32;93013.53;;;20.52;35.58
39613;BME280;25303;48.896;13.342;2023-05-29T08:41:20;93018.06;;;20.63;34.96
39613;BME280;25303;48.896;13.342;2023-05-29T08:44:07;93010.38;;;20.68;34.66
39613;BME280;25303;48.896;13.342;2023-05-29T08:46:54;93008.72;;;20.74;34.86
39613;BME280;25303;48.896;13.342;2023-05-29T08:49:40;92998.59;;;20.84;34.68
39613;BME280;25303;48.896;13.342;2023-05-29T08:52:25;93000.94;;;20.92;33.91
39613;BME280;25303;48.896;13.342;2023-05-29T08:55:09;93000.13;;;20.92;33.18
39613;BME280;25303;48.896;13.342;2023-05-29T08:57:53;93002.22;;;20.83;34.01
39613;BME280;25303;48.896;13.342;2023-05-29T09:00:36;93011.78;;;20.96;33.97
39613;BME280;25303;48.896;13.342;2023-05-29T09:03:19;93003.13;;;21.14;33.83
39613;BME280;25303;48.896;13.342;2023-05-29T09:06:04;92998.47;;;21.35;33.58
39613;BME280;25303;48.896;13.342;2023-05-29T09:08:48;93007.91;;;21.54;33.24
39613;BME280;25303;48.896;13.342;2023-05-29T09:11:33;93002.88;;;21.72;33.22
39613;BME280;25303;48.896;13.342;2023-05-29T09:14:32;93007.69;;;21.75;31.40
39613;BME280;25303;48.896;13.342;2023-05-29T09:17:17;93004.41;;;21.79;32.43
39613;BME280;25303;48.896;13.342;2023-05-29T09:20:00;93009.94;;;21.90;32.30
39613;BME280;25303;48.896;13.342;2023-05-29T09:22:52;93006.94;;;21.86;31.90
39613;BME280;25303;48.896;13.342;2023-05-29T09:25:39;93007.41;;;21.83;32.02
39613;BME280;25303;48.896;13.342;2023-05-29T09:28:23;93006.97;;;21.98;32.69
39613;BME280;25303;48.896;13.342;2023-05-29T09:31:14;93004.34;;;22.28;30.99
39613;BME280;25303;48.896;13.342;2023-05-29T09:34:02;93006.81;;;22.77;32.20
39613;BME280;25303;48.896;13.342;2023-05-29T09:36:46;93007.16;;;23.29;31.49
39613;BME280;25303;48.896;13.342;2023-05-29T09:39:29;93011.59;;;23.81;31.19
39613;BME280;25303;48.896;13.342;2023-05-29T09:42:12;93002.94;;;24.26;30.96
39613;BME280;25303;48.896;13.342;2023-05-29T09:44:55;93014.56;;;24.77;30.32
39613;BME280;25303;48.896;13.342;2023-05-29T09:47:40;93013.78;;;25.15;29.43
39613;BME280;25303;48.896;13.342;2023-05-29T09:50:25;93009.03;;;25.52;29.04
39613;BME280;25303;48.896;13.342;2023-05-29T09:53:16;93006.44;;;26.06;27.60
39613;BME280;25303;48.896;13.342;2023-05-29T09:56:02;93001.72;;;26.31;28.33
39613;BME280;25303;48.896;13.342;2023-05-29T09:58:47;93002.06;;;26.45;27.39
39613;BME280;25303;48.896;13.342;2023-05-29T10:01:30;93004.22;;;26.48;25.67
39613;BME280;25303;48.896;13.342;2023-05-29T10:04:15;93002.47;;;26.59;26.23
39613;BME280;25303;48.896;13.342;2023-05-29T10:07:00;93004.38;;;26.68;26.78
39613;BME280;25303;48.896;13.342;2023-05-29T10:09:49;93005.94;;;27.02;25.62
39613;BME280;25303;48.896;13.342;2023-05-29T10:12:36;93011.13;;;27.29;26.20
39613;BME280;25303;48.896;13.342;2023-05-29T10:15:23;93005.59;;;27.95;25.74
39613;BME280;25303;48.896;13.342;2023-05-29T10:18:12;93005.97;;;28.50;25.25
39613;BME280;25303;48.896;13.342;2023-05-29T10:20:58;93005.72;;;28.67;24.79
39613;BME280;25303;48.896;13.342;2023-05-29T10:23:46;93006.78;;;28.97;24.62
39613;BME280;25303;48.896;13.342;2023-05-29T10:26:31;93010.72;;;29.20;23.54
39613;BME280;25303;48.896;13.342;2023-05-29T10:29:22;93000.34;;;29.39;23.44
39613;BME280;25303;48.896;13.342;2023-05-29T10:32:18;92993.69;;;29.52;22.48
39613;BME280;25303;48.896;13.342;2023-05-29T10:35:10;92995.53;;;29.57;22.85
39613;BME280;25303;48.896;13.342;2023-05-29T10:38:00;93001.63;;;29.58;23.45
39613;BME280;25303;48.896;13.342;2023-05-29T10:40:45;92995.97;;;29.75;22.99
39613;BME280;25303;48.896;13.342;2023-05-29T10:43:32;92999.06;;;30.03;22.40
39613;BME280;25303;48.896;13.342;2023-05-29T10:46:16;92989.13;;;30.24;22.13
39613;BME280;25303;48.896;13.342;2023-05-29T10:48:59;92987.69;;;30.37;21.92
39613;BME280;25303;48.896;13.342;2023-05-29T10:51:42;92991.66;;;29.94;22.38
39613;BME280;25303;48.896;13.342;2023-05-29T10:54:28;92991.81;;;30.13;21.92
39613;BME280;25303;48.896;13.342;2023-05-29T10:57:23;92994.13;;;29.75;21.31
39613;BME280;25303;48.896;13.342;2023-05-29T11:00:07;92993.50;;;29.13;21.85
39613;BME280;25303;48.896;13.342;2023-05-29T11:02:55;92991.38;;;29.20;22.27
39613;BME280;25303;48.896;13.342;2023-05-29T11:05:57;92987.91;;;29.45;20.59
39613;BME280;25303;48.896;13.342;2023-05-29T11:08:43;92988.56;;;29.71;21.26
39613;BME280;25303;48.896;13.342;2023-05-29T11:11:32;92989.16;;;29.58;21.23
39613;BME280;25303;48.896;13.342;2023-05-29T11:14:20;92992.41;;;29.29;21.12
39613;BME280;25303;48.896;13.342;2023-05-29T11:17:04;92988.50;;;28.90;21.02
39613;BME280;25303;48.896;13.342;2023-05-29T11:19:48;92979.25;;;28.36;21.79
39613;BME280;25303;48.896;13.342;2023-05-29T11:22:56;92988.66;;;27.85;21.54
39613;BME280;25303;48.896;13.342;2023-05-29T11:25:44;92991.00;;;27.23;21.86
39613;BME280;25303;48.896;13.342;2023-05-29T11:28:29;92991.91;;;26.59;22.75
39613;BME280;25303;48.896;13.342;2023-05-29T11:31:13;92995.97;;;26.39;23.08
39613;BME280;25303;48.896;13.342;2023-05-29T11:33:59;93001.91;;;26.57;23.14
39613;BME280;25303;48.896;13.342;2023-05-29T11:36:44;92994.28;;;26.93;22.89
39613;BME280;25303;48.896;13.342;2023-05-29T11:39:27;92998.78;;;26.97;22.67
39613;BME280;25303;48.896;13.342;2023-05-29T11:42:11;92998.47;;;26.89;22.80
39613;BME280;25303;48.896;13.342;2023-05-29T11:44:55;92998.56;;;26.66;22.81
39613;BME280;25303;48.896;13.342;2023-05-29T11:47:52;92997.81;;;26.38;22.71
39613;BME280;25303;48.896;13.342;2023-05-29T11:50:36;92998.00;;;26.04;23.76
39613;BME280;25303;48.896;13.342;2023-05-29T11:53:19;92993.91;;;25.91;23.67
39613;BME280;25303;48.896;13.342;2023-05-29T11:56:08;92996.84;;;25.95;23.76
39613;BME280;25303;48.896;13.342;2023-05-29T11:58:52;92992.84;;;26.15;23.65
39613;BME280;25303;48.896;13.342;2023-05-29T12:01:39;92996.53;;;26.14;23.65
39613;BME280;25303;48.896;13.342;2023-05-29T12:04:22;92991.34;;;25.74;23.66
39613;BME280;25303;48.896;13.342;2023-05-29T12:07:17;92999.59;;;25.16;26.12
39613;BME280;25303;48.896;13.342;2023-05-29T12:10:09;93002.75;;;24.79;25.78
39613;BME280;25303;48.896;13.342;2023-05-29T12:12:54;92996.81;;;24.55;25.33
39613;BME280;25303;48.896;13.342;2023-05-29T12:15:37;93001.13;;;24.44;26.17
39613;BME280;25303;48.896;13.342;2023-05-29T12:18:22;92998.50;;;24.44;25.98
39613;BME280;25303;48.896;13.342;2023-05-29T12:21:05;92991.31;;;24.39;26.01
39613;BME280;25303;48.896;13.342;2023-05-29T12:23:51;92992.91;;;24.57;25.96
39613;BME280;25303;48.896;13.342;2023-05-29T12:26:51;92990.84;;;24.94;25.34
39613;BME280;25303;48.896;13.342;2023-05-29T12:29:34;92987.72;;;24.63;26.07
39613;BME280;25303;48.896;13.342;2023-05-29T12:32:17;92991.25;;;25.25;26.55
39613;BME280;25303;48.896;13.342;2023-05-29T12:35:10;92985.91;;;25.81;25.67
39613;BME280;25303;48.896;13.342;2023-05-29T12:37:56;92989.31;;;25.82;25.08
39613;BME280;25303;48.896;13.342;2023-05-29T12:40:40;92996.06;;;25.50;25.63
39613;BME280;25303;48.896;13.342;2023-05-29T12:43:22;92994.88;;;25.18;25.44
39613;BME280;25303;48.896;13.342;2023-05-29T12:46:05;92999.50;;;24.72;25.28
39613;BME280;25303;48.896;13.342;2023-05-29T12:48:49;92989.94;;;24.20;25.99
39613;BME280;25303;48.896;13.342;2023-05-29T12:51:34;93000.78;;;23.94;26.56
39613;BME280;25303;48.896;13.342;2023-05-29T12:54:17;92993.75;;;23.42;27.12
39613;BME280;25303;48.896;13.342;2023-05-29T12:57:00;92993.34;;;23.21;27.11
39613;BME280;25303;48.896;13.342;2023-05-29T12:59:43;92989.13;;;22.97;27.22
39613;BME280;25303;48.896;13.342;2023-05-29T13:02:27;92981.38;;;22.90;27.75
39613;BME280;25303;48.896;13.342;2023-05-29T13:05:11;92984.09;;;23.07;28.36
39613;BME280;25303;48.896;13.342;2023-05-29T13:07:57;92980.44;;;23.73;28.53
39613;BME280;25303;48.896;13.342;2023-05-29T13:10:40;92982.09;;;24.71;27.32
39613;BME280;25303;48.896;13.342;2023-05-29T13:13:23;92978.53;;;25.61;26.25
39613;BME280;25303;48.896;13.342;2023-05-29T13:16:06;92982.00;;;26.44;25.61
39613;BME280;25303;48.896;13.342;2023-05-29T13:18:49;92981.97;;;26.38;24.18
39613;BME280;25303;48.896;13.342;2023-05-29T13:21:32;92975.72;;;25.95;24.17
39613;BME280;25303;48.896;13.342;2023-05-29T13:24:16;92982.69;;;25.34;24.90
39613;BME280;25303;48.896;13.342;2023-05-29T13:26:59;92977.19;;;24.97;24.10
39613;BME280;25303;48.896;13.342;2023-05-29T13:29:44;92975.69;;;24.84;24.89
39613;BME280;25303;48.896;13.342;2023-05-29T13:32:27;92971.13;;;24.96;24.42
39613;BME280;25303;48.896;13.342;2023-05-29T13:35:10;92969.97;;;25.09;24.70
39613;BME280;25303;48.896;13.342;2023-05-29T13:37:53;92976.53;;;25.07;25.06
39613;BME280;25303;48.896;13.342;2023-05-29T13:40:38;92975.66;;;25.01;24.80
39613;BME280;25303;48.896;13.342;2023-05-29T13:43:21;92968.63;;;25.07;24.94
39613;BME280;25303;48.896;13.342;2023-05-29T13:46:20;92969.84;;;25.38;24.85
39613;BME280;25303;48.896;13.342;2023-05-29T13:49:04;92962.69;;;25.56;23.77
39613;BME280;25303;48.896;13.342;2023-05-29T13:51:49;92960.44;;;25.70;23.45
39613;BME280;25303;48.896;13.342;2023-05-29T13:54:32;92964.88;;;25.02;24.36
39613;BME280;25303;48.896;13.342;2023-05-29T13:57:18;92969.88;;;24.82;25.09
39613;BME280;25303;48.896;13.342;2023-05-29T14:00:01;92965.38;;;24.99;25.31
39613;BME280;25303;48.896;13.342;2023-05-29T14:02:47;92950.00;;;25.36;25.20
39613;BME280;25303;48.896;13.342;2023-05-29T14:05:30;92962.78;;;25.66;24.47
39613;BME280;25303;48.896;13.342;2023-05-29T14:08:13;92954.34;;;25.91;23.45
39613;BME280;25303;48.896;13.342;2023-05-29T14:10:56;92954.78;;;26.11;22.36
39613;BME280;25303;48.896;13.342;2023-05-29T14:13:40;92949.47;;;26.05;23.13
39613;BME280;25303;48.896;13.342;2023-05-29T14:16:23;92948.06;;;26.25;22.85
39613;BME280;25303;48.896;13.342;2023-05-29T14:19:07;92951.56;;;26.31;22.89
39613;BME280;25303;48.896;13.342;2023-05-29T14:21:50;92947.50;;;26.23;23.42
39613;BME280;25303;48.896;13.342;2023-05-29T14:24:33;92949.59;;;25.66;23.38